Terminal Aerodrome Forecast
Issued by NWS Lake Charles, LA

Home | Current Version | Previous Version | Text Only | Print | Product List | Glossary On
Versions: 1 2 3 4 5 6 7 8 9 10 11 12 13 14 15 16 17 18
000
FTUS44 KLCH 030952 AAA
TAFBPT
TAF AMD
KBPT 030952Z 0310/0406 17003KT P6SM VCTS SCT025CB SCT250
     FM031400 20011KT P6SM SCT025
     FM040000 18004KT P6SM FEW040 SCT200=

USA.gov is the U.S. government's official web portal to all federal, state and local government web resources and services.